createdAt,value
2023-05-21T00:00:40.169Z,21.75
2023-05-21T00:01:40.155Z,21.74
2023-05-21T00:02:40.298Z,21.73
2023-05-21T00:03:40.277Z,21.73
2023-05-21T00:04:40.249Z,21.73
2023-05-21T00:05:40.347Z,21.73
2023-05-21T00:06:40.346Z,21.73
2023-05-21T00:07:40.384Z,21.73
2023-05-21T00:08:40.424Z,21.73
2023-05-21T00:09:40.444Z,21.73
2023-05-21T00:10:40.497Z,21.73
2023-05-21T00:11:40.529Z,21.73
2023-05-21T00:12:40.544Z,21.73
2023-05-21T00:13:40.600Z,21.72
2023-05-21T00:14:40.602Z,21.73
2023-05-21T00:15:40.634Z,21.73
2023-05-21T00:16:40.672Z,21.73
2023-05-21T00:17:40.701Z,21.72
2023-05-21T00:18:40.663Z,21.72
2023-05-21T00:19:40.745Z,21.70
2023-05-21T00:20:40.662Z,21.71
2023-05-21T00:21:40.638Z,21.71
2023-05-21T00:22:40.634Z,21.70
2023-05-21T00:23:40.649Z,21.71
2023-05-21T00:24:40.649Z,21.70
2023-05-21T00:25:40.650Z,21.70
2023-05-21T00:26:40.657Z,21.70
2023-05-21T00:27:40.637Z,21.69
2023-05-21T00:28:40.653Z,21.69
2023-05-21T00:29:42.316Z,21.69
2023-05-21T00:30:40.673Z,21.69
2023-05-21T00:31:40.666Z,21.68
2023-05-21T00:32:40.666Z,21.67
2023-05-21T00:33:40.665Z,21.67
2023-05-21T00:34:40.671Z,21.67
2023-05-21T00:35:40.668Z,21.67
2023-05-21T00:36:40.633Z,21.67
2023-05-21T00:37:40.606Z,21.66
2023-05-21T00:38:40.602Z,21.66
2023-05-21T00:39:40.583Z,21.66
2023-05-21T00:40:40.593Z,21.66
2023-05-21T00:41:41.375Z,21.66
2023-05-21T00:42:40.582Z,21.66
2023-05-21T00:43:40.583Z,21.64
2023-05-21T00:44:40.574Z,21.64
2023-05-21T00:45:40.561Z,21.63
2023-05-21T00:46:40.554Z,21.64
2023-05-21T00:47:40.555Z,21.63
2023-05-21T00:48:40.552Z,21.62
2023-05-21T00:49:40.542Z,21.62
2023-05-21T00:50:40.521Z,21.61
2023-05-21T00:51:40.523Z,21.61
2023-05-21T00:52:40.496Z,21.62
2023-05-21T00:53:40.503Z,21.61
2023-05-21T00:54:40.502Z,21.61
2023-05-21T00:55:40.516Z,21.61
2023-05-21T00:56:40.511Z,21.61
2023-05-21T00:57:40.493Z,21.62
2023-05-21T00:58:40.474Z,21.61
2023-05-21T00:59:40.435Z,21.60
2023-05-21T01:00:40.485Z,21.60
2023-05-21T01:01:40.482Z,21.60
2023-05-21T01:02:40.563Z,21.60
2023-05-21T01:03:40.482Z,21.60
2023-05-21T01:04:40.453Z,21.58
2023-05-21T01:05:40.426Z,21.58
2023-05-21T01:06:40.444Z,21.57
2023-05-21T01:07:40.439Z,21.57
2023-05-21T01:08:40.398Z,21.57
2023-05-21T01:09:40.410Z,21.57
2023-05-21T01:10:40.404Z,21.55
2023-05-21T01:11:40.396Z,21.56
2023-05-21T01:12:40.376Z,21.56
2023-05-21T01:13:40.364Z,21.56
2023-05-21T01:14:40.400Z,21.56
2023-05-21T01:15:40.388Z,21.56
2023-05-21T01:16:40.449Z,21.56
2023-05-21T01:17:40.406Z,21.55
2023-05-21T01:18:40.420Z,21.55
2023-05-21T01:19:40.393Z,21.55
2023-05-21T01:20:40.342Z,21.54
2023-05-21T01:21:40.348Z,21.54
2023-05-21T01:22:40.308Z,21.54
2023-05-21T01:23:40.295Z,21.54
2023-05-21T01:24:40.287Z,21.54
2023-05-21T01:25:40.317Z,21.53
2023-05-21T01:26:40.283Z,21.54
2023-05-21T01:27:40.267Z,21.52
2023-05-21T01:28:40.303Z,21.52
2023-05-21T01:29:40.276Z,21.52
2023-05-21T01:30:40.305Z,21.52
2023-05-21T01:31:40.253Z,21.51
2023-05-21T01:32:40.291Z,21.50
2023-05-21T01:33:40.296Z,21.50
2023-05-21T01:34:40.220Z,21.50
2023-05-21T01:35:40.266Z,21.50
2023-05-21T01:36:40.229Z,21.50
2023-05-21T01:37:40.243Z,21.49
2023-05-21T01:38:40.294Z,21.49
2023-05-21T01:39:40.227Z,21.49
2023-05-21T01:40:40.206Z,21.49
2023-05-21T01:41:40.190Z,21.48
2023-05-21T01:42:41.930Z,21.47
2023-05-21T01:43:40.196Z,21.46
2023-05-21T01:44:40.186Z,21.46
2023-05-21T01:45:40.188Z,21.46
2023-05-21T01:46:40.190Z,21.46
2023-05-21T01:47:40.197Z,21.45
2023-05-21T01:48:40.150Z,21.44
2023-05-21T01:49:40.124Z,21.44
2023-05-21T01:50:40.135Z,21.44
2023-05-21T01:51:40.136Z,21.44
2023-05-21T01:52:40.110Z,21.44
2023-05-21T01:53:40.106Z,21.43
2023-05-21T01:54:40.139Z,21.43
2023-05-21T01:55:40.169Z,21.44
2023-05-21T01:56:40.110Z,21.43
2023-05-21T01:57:40.110Z,21.43
2023-05-21T01:58:40.096Z,21.43
2023-05-21T01:59:40.088Z,21.43
2023-05-21T02:00:40.128Z,21.43
2023-05-21T02:01:40.119Z,21.43
2023-05-21T02:02:40.142Z,21.43
2023-05-21T02:03:40.108Z,21.42
2023-05-21T02:04:40.043Z,21.42
2023-05-21T02:05:40.064Z,21.41
2023-05-21T02:06:40.055Z,21.41
2023-05-21T02:07:40.057Z,21.40
2023-05-21T02:08:40.090Z,21.40
2023-05-21T02:09:40.105Z,21.40
2023-05-21T02:10:40.133Z,21.39
2023-05-21T02:11:40.154Z,21.40
2023-05-21T02:12:40.173Z,21.39
2023-05-21T02:13:40.201Z,21.39
2023-05-21T02:14:40.202Z,21.39
2023-05-21T02:15:40.238Z,21.38
2023-05-21T02:16:40.377Z,21.38
2023-05-21T02:17:40.298Z,21.38
2023-05-21T02:18:40.263Z,21.38
2023-05-21T02:19:40.310Z,21.38
2023-05-21T02:20:40.352Z,21.39
2023-05-21T02:21:40.335Z,21.38
2023-05-21T02:22:40.399Z,21.37
2023-05-21T02:23:40.435Z,21.37
2023-05-21T02:24:40.464Z,21.37
2023-05-21T02:25:40.506Z,21.36
2023-05-21T02:26:40.519Z,21.36
2023-05-21T02:27:40.582Z,21.35
2023-05-21T02:28:40.588Z,21.34
2023-05-21T02:29:40.633Z,21.35
2023-05-21T02:30:40.687Z,21.34
2023-05-21T02:31:40.746Z,21.34
2023-05-21T02:32:40.825Z,21.34
2023-05-21T02:33:40.854Z,21.33
2023-05-21T02:34:40.833Z,21.32
2023-05-21T02:35:40.942Z,21.33
2023-05-21T02:36:40.940Z,21.32
2023-05-21T02:37:41.008Z,21.32
2023-05-21T02:38:41.051Z,21.33
2023-05-21T02:39:41.106Z,21.32
2023-05-21T02:40:41.125Z,21.32
2023-05-21T02:41:41.180Z,21.32
2023-05-21T02:42:41.239Z,21.32
2023-05-21T02:43:41.936Z,21.32
2023-05-21T02:44:41.308Z,21.31
2023-05-21T02:45:41.391Z,21.31
2023-05-21T02:46:41.417Z,21.30
2023-05-21T02:47:41.553Z,21.30
2023-05-21T02:48:41.479Z,21.30
2023-05-21T02:49:41.556Z,21.31
2023-05-21T02:50:41.585Z,21.30
2023-05-21T02:51:41.657Z,21.30
2023-05-21T02:52:41.693Z,21.29
2023-05-21T02:53:41.735Z,21.30
2023-05-21T02:54:41.754Z,21.29
2023-05-21T02:55:41.829Z,21.30
2023-05-21T02:56:41.857Z,21.29
2023-05-21T02:57:41.900Z,21.29
2023-05-21T02:58:41.934Z,21.28
2023-05-21T02:59:41.964Z,21.29
2023-05-21T03:00:42.092Z,21.28
2023-05-21T03:01:42.100Z,21.29
2023-05-21T03:02:42.240Z,21.29
2023-05-21T03:03:42.207Z,21.29
2023-05-21T03:04:42.184Z,21.28
2023-05-21T03:05:42.301Z,21.28
2023-05-21T03:06:42.264Z,21.28
2023-05-21T03:07:42.341Z,21.28
2023-05-21T03:08:42.374Z,21.28
2023-05-21T03:09:42.482Z,21.28
2023-05-21T03:10:42.452Z,21.28
2023-05-21T03:11:42.460Z,21.27
2023-05-21T03:12:42.553Z,21.28
2023-05-21T03:13:42.588Z,21.28
2023-05-21T03:14:42.687Z,21.27
2023-05-21T03:15:42.699Z,21.27
2023-05-21T03:16:42.696Z,21.27
2023-05-21T03:17:42.816Z,21.26
2023-05-21T03:18:42.795Z,21.25
2023-05-21T03:19:42.881Z,21.26
2023-05-21T03:20:42.900Z,21.25
2023-05-21T03:21:42.922Z,21.25
2023-05-21T03:22:42.958Z,21.24
2023-05-21T03:23:42.988Z,21.24
2023-05-21T03:24:43.048Z,21.23
2023-05-21T03:25:43.094Z,21.23
2023-05-21T03:26:43.164Z,21.23
2023-05-21T03:27:43.232Z,21.23
2023-05-21T03:28:43.224Z,21.23
2023-05-21T03:29:43.301Z,21.23
2023-05-21T03:30:43.310Z,21.23
2023-05-21T03:31:43.368Z,21.23
2023-05-21T03:32:43.452Z,21.23
2023-05-21T03:33:43.471Z,21.22
2023-05-21T03:34:43.502Z,21.21
2023-05-21T03:35:43.575Z,21.22
2023-05-21T03:36:43.656Z,21.21
2023-05-21T03:37:43.651Z,21.21
2023-05-21T03:38:43.704Z,21.21
2023-05-21T03:39:43.749Z,21.21
2023-05-21T03:40:43.791Z,21.21
2023-05-21T03:41:43.855Z,21.20
2023-05-21T03:42:43.888Z,21.21
2023-05-21T03:43:43.946Z,21.20
2023-05-21T03:44:43.996Z,21.20
2023-05-21T03:45:44.657Z,21.18
2023-05-21T03:46:44.118Z,21.18
2023-05-21T03:47:44.229Z,21.18
2023-05-21T03:48:44.230Z,21.17
2023-05-21T03:49:44.287Z,21.17
2023-05-21T03:50:44.334Z,21.16
2023-05-21T03:51:44.406Z,21.16
2023-05-21T03:52:44.449Z,21.15
2023-05-21T03:53:44.502Z,21.16
2023-05-21T03:54:44.542Z,21.17
2023-05-21T03:55:44.621Z,21.17
2023-05-21T03:56:44.636Z,21.16
2023-05-21T03:57:44.705Z,21.15
2023-05-21T03:58:44.761Z,21.14
2023-05-21T03:59:44.837Z,21.14
2023-05-21T04:00:44.922Z,21.14
2023-05-21T04:01:44.930Z,21.14
2023-05-21T04:02:45.056Z,21.13
2023-05-21T04:03:45.203Z,21.14
2023-05-21T04:04:45.086Z,21.15
2023-05-21T04:05:45.199Z,21.14
2023-05-21T04:06:45.262Z,21.12
2023-05-21T04:07:45.270Z,21.12
2023-05-21T04:08:45.325Z,21.11
2023-05-21T04:09:45.386Z,21.11
2023-05-21T04:10:45.452Z,21.10
2023-05-21T04:11:45.514Z,21.10
2023-05-21T04:12:45.541Z,21.09
2023-05-21T04:13:45.631Z,21.09
2023-05-21T04:14:45.683Z,21.09
2023-05-21T04:15:45.774Z,21.09
2023-05-21T04:16:45.808Z,21.07
2023-05-21T04:17:45.887Z,21.07
2023-05-21T04:18:45.935Z,21.07
2023-05-21T04:19:46.004Z,21.07
2023-05-21T04:20:46.057Z,21.07
2023-05-21T04:21:46.154Z,21.07
2023-05-21T04:22:46.188Z,21.07
2023-05-21T04:23:46.343Z,21.07
2023-05-21T04:24:46.274Z,21.08
2023-05-21T04:25:46.375Z,21.07
2023-05-21T04:26:46.421Z,21.07
2023-05-21T04:27:46.446Z,21.08
2023-05-21T04:28:46.545Z,21.08
2023-05-21T04:29:47.321Z,21.08
2023-05-21T04:30:46.651Z,21.07
2023-05-21T04:31:46.822Z,21.07
2023-05-21T04:32:46.885Z,21.07
2023-05-21T04:33:46.837Z,21.07
2023-05-21T04:34:46.943Z,21.07
2023-05-21T04:35:46.947Z,21.07
2023-05-21T04:36:47.066Z,21.08
2023-05-21T04:37:47.080Z,21.07
2023-05-21T04:38:47.115Z,21.08
2023-05-21T04:39:47.190Z,21.07
2023-05-21T04:40:47.269Z,21.07
2023-05-21T04:41:47.402Z,21.08
2023-05-21T04:42:47.354Z,21.08
2023-05-21T04:43:47.415Z,21.07
2023-05-21T04:44:47.465Z,21.07
2023-05-21T04:45:47.529Z,21.07
2023-05-21T04:46:47.622Z,21.07
2023-05-21T04:47:47.732Z,21.07
2023-05-21T04:48:47.726Z,21.07
2023-05-21T04:49:47.776Z,21.07
2023-05-21T04:50:47.820Z,21.07
2023-05-21T04:51:47.878Z,21.06
2023-05-21T04:52:47.950Z,21.06
2023-05-21T04:53:48.023Z,21.05
2023-05-21T04:54:48.056Z,21.06
2023-05-21T04:55:48.156Z,21.07
2023-05-21T04:56:48.189Z,21.07
2023-05-21T04:57:48.243Z,21.08
2023-05-21T04:58:48.285Z,21.08
2023-05-21T04:59:48.342Z,21.07
2023-05-21T05:00:48.465Z,21.08
2023-05-21T05:01:48.467Z,21.07
2023-05-21T05:02:48.611Z,21.07
2023-05-21T05:03:48.705Z,21.07
2023-05-21T05:04:48.673Z,21.07
2023-05-21T05:05:48.744Z,21.08
2023-05-21T05:06:48.800Z,21.08
2023-05-21T05:07:48.877Z,21.08
2023-05-21T05:08:48.907Z,21.08
2023-05-21T05:09:48.972Z,21.08
2023-05-21T05:10:49.060Z,21.08
2023-05-21T05:11:49.098Z,21.09
2023-05-21T05:12:49.207Z,21.09
2023-05-21T05:13:49.256Z,21.09
2023-05-21T05:14:49.275Z,21.10
2023-05-21T05:15:50.603Z,21.10
2023-05-21T05:16:49.416Z,21.11
2023-05-21T05:17:49.514Z,21.12
2023-05-21T05:18:49.558Z,21.12
2023-05-21T05:19:49.546Z,21.12
2023-05-21T05:20:49.613Z,21.13
2023-05-21T05:21:49.650Z,21.13
2023-05-21T05:22:49.737Z,21.13
2023-05-21T05:23:49.738Z,21.13
2023-05-21T05:24:49.849Z,21.14
2023-05-21T05:25:49.853Z,21.14
2023-05-21T05:26:49.911Z,21.14
2023-05-21T05:27:50.004Z,21.13
2023-05-21T05:28:50.030Z,21.13
2023-05-21T05:29:50.070Z,21.14
2023-05-21T05:30:50.125Z,21.14
2023-05-21T05:31:50.176Z,21.13
2023-05-21T05:32:50.279Z,21.13
2023-05-21T05:33:50.277Z,21.14
2023-05-21T05:34:50.322Z,21.15
2023-05-21T05:35:50.375Z,21.14
2023-05-21T05:36:50.441Z,21.15
2023-05-21T05:37:50.483Z,21.14
2023-05-21T05:38:50.529Z,21.14
2023-05-21T05:39:50.608Z,21.15
2023-05-21T05:40:50.624Z,21.14
2023-05-21T05:41:50.703Z,21.15
2023-05-21T05:42:50.737Z,21.15
2023-05-21T05:43:50.806Z,21.15
2023-05-21T05:44:50.801Z,21.16
2023-05-21T05:45:50.930Z,21.16
2023-05-21T05:46:50.959Z,21.16
2023-05-21T05:47:51.041Z,21.16
2023-05-21T05:48:51.050Z,21.16
2023-05-21T05:49:51.075Z,21.16
2023-05-21T05:50:51.168Z,21.16
2023-05-21T05:51:51.219Z,21.16
2023-05-21T05:52:51.284Z,21.16
2023-05-21T05:53:51.315Z,21.16
2023-05-21T05:54:51.353Z,21.16
2023-05-21T05:55:51.412Z,21.16
2023-05-21T05:56:53.048Z,21.17
2023-05-21T05:57:51.545Z,21.17
2023-05-21T05:58:51.561Z,21.17
2023-05-21T05:59:51.631Z,21.17
2023-05-21T06:00:51.663Z,21.18
2023-05-21T06:01:51.708Z,21.18
2023-05-21T06:02:51.856Z,21.18
2023-05-21T06:03:51.887Z,21.18
2023-05-21T06:04:51.857Z,21.18
2023-05-21T06:05:51.916Z,21.20
2023-05-21T06:06:51.949Z,21.20
2023-05-21T06:07:52.018Z,21.22
2023-05-21T06:08:52.055Z,21.22
2023-05-21T06:09:52.127Z,21.22
2023-05-21T06:10:52.130Z,21.23
2023-05-21T06:11:52.195Z,21.24
2023-05-21T06:12:52.221Z,21.24
2023-05-21T06:13:52.276Z,21.24
2023-05-21T06:14:52.336Z,21.25
2023-05-21T06:15:52.374Z,21.25
2023-05-21T06:16:52.374Z,21.26
2023-05-21T06:17:52.470Z,21.26
2023-05-21T06:18:52.499Z,21.26
2023-05-21T06:19:52.501Z,21.26
2023-05-21T06:20:52.549Z,21.27
2023-05-21T06:21:52.579Z,21.29
2023-05-21T06:22:52.649Z,21.29
2023-05-21T06:23:52.671Z,21.30
2023-05-21T06:24:52.728Z,21.30
2023-05-21T06:25:52.764Z,21.31
2023-05-21T06:26:52.837Z,21.32
2023-05-21T06:27:52.820Z,21.32
2023-05-21T06:28:52.834Z,21.33
2023-05-21T06:29:52.870Z,21.34
2023-05-21T06:30:52.920Z,21.34
2023-05-21T06:31:52.956Z,21.35
2023-05-21T06:32:53.096Z,21.35
2023-05-21T06:33:53.150Z,21.35
2023-05-21T06:34:53.016Z,21.36
2023-05-21T06:35:53.053Z,21.36
2023-05-21T06:36:53.098Z,21.37
2023-05-21T06:37:53.128Z,21.38
2023-05-21T06:38:53.138Z,21.38
2023-05-21T06:39:53.197Z,21.38
2023-05-21T06:40:53.188Z,21.38
2023-05-21T06:41:53.247Z,21.38
2023-05-21T06:42:53.367Z,21.38
2023-05-21T06:43:53.314Z,21.39
2023-05-21T06:44:53.313Z,21.39
2023-05-21T06:45:53.380Z,21.39
2023-05-21T06:46:53.402Z,21.39
2023-05-21T06:47:53.440Z,21.39
2023-05-21T06:48:53.480Z,21.40
2023-05-21T06:49:53.496Z,21.40
2023-05-21T06:50:53.521Z,21.41
2023-05-21T06:51:53.570Z,21.41
2023-05-21T06:52:53.579Z,21.41
2023-05-21T06:53:53.642Z,21.41
2023-05-21T06:54:53.671Z,21.41
2023-05-21T06:55:53.859Z,21.42
2023-05-21T06:56:53.704Z,21.43
2023-05-21T06:57:53.732Z,21.43
2023-05-21T06:58:53.785Z,21.43
2023-05-21T06:59:53.806Z,21.43
2023-05-21T07:00:53.885Z,21.44
2023-05-21T07:01:53.920Z,21.45
2023-05-21T07:02:53.961Z,21.45
2023-05-21T07:03:53.924Z,21.46
2023-05-21T07:04:53.956Z,21.46
2023-05-21T07:05:53.964Z,21.47
2023-05-21T07:06:54.004Z,21.49
2023-05-21T07:07:53.990Z,21.49
2023-05-21T07:08:54.036Z,21.50
2023-05-21T07:09:54.061Z,21.51
2023-05-21T07:10:54.123Z,21.51
2023-05-21T07:11:54.085Z,21.51
2023-05-21T07:12:54.097Z,21.52
2023-05-21T07:13:54.171Z,21.52
2023-05-21T07:14:54.175Z,21.53
2023-05-21T07:15:54.192Z,21.53
2023-05-21T07:16:54.216Z,21.54
2023-05-21T07:17:54.303Z,21.55
2023-05-21T07:18:54.256Z,21.56
2023-05-21T07:19:54.224Z,21.57
2023-05-21T07:20:54.258Z,21.58
2023-05-21T07:21:54.328Z,21.58
2023-05-21T07:22:54.295Z,21.59
2023-05-21T07:23:54.301Z,21.59
2023-05-21T07:24:54.320Z,21.61
2023-05-21T07:25:54.303Z,21.62
2023-05-21T07:26:54.324Z,21.63
2023-05-21T07:27:54.315Z,21.64
2023-05-21T07:28:54.335Z,21.66
2023-05-21T07:29:54.346Z,21.66
2023-05-21T07:30:54.393Z,21.66
2023-05-21T07:31:54.324Z,21.67
2023-05-21T07:32:54.375Z,21.69
2023-05-21T07:33:54.330Z,21.70
2023-05-21T07:34:54.613Z,21.70
2023-05-21T07:35:54.340Z,21.71
2023-05-21T07:36:54.334Z,21.71
2023-05-21T07:37:54.419Z,21.73
2023-05-21T07:38:54.363Z,21.73
2023-05-21T07:39:54.305Z,21.75
2023-05-21T07:40:54.346Z,21.75
2023-05-21T07:41:54.411Z,21.76
2023-05-21T07:42:54.412Z,21.76
2023-05-21T07:43:54.441Z,21.77
2023-05-21T07:44:54.496Z,21.77
2023-05-21T07:45:54.550Z,21.78
2023-05-21T07:46:54.555Z,21.79
2023-05-21T07:47:54.602Z,21.79
2023-05-21T07:48:54.627Z,21.80
2023-05-21T07:49:54.702Z,21.81
2023-05-21T07:50:54.782Z,21.82
2023-05-21T07:51:54.832Z,21.83
2023-05-21T07:52:54.965Z,21.83
2023-05-21T07:53:55.456Z,21.85
2023-05-21T07:54:55.026Z,21.86
2023-05-21T07:55:55.545Z,21.87
2023-05-21T07:56:55.154Z,21.88
2023-05-21T07:57:55.169Z,21.88
2023-05-21T07:58:55.245Z,21.89
2023-05-21T07:59:55.330Z,21.90
2023-05-21T08:00:55.356Z,21.90
2023-05-21T08:01:55.381Z,21.91
2023-05-21T08:02:55.511Z,21.92
2023-05-21T08:03:55.608Z,21.92
2023-05-21T08:04:55.578Z,21.91
2023-05-21T08:05:55.608Z,21.93
2023-05-21T08:06:55.661Z,21.94
2023-05-21T08:07:55.670Z,21.95
2023-05-21T08:08:55.727Z,21.95
2023-05-21T08:09:55.798Z,21.96
2023-05-21T08:10:55.831Z,21.97
2023-05-21T08:11:55.840Z,21.98
2023-05-21T08:12:55.910Z,21.98
2023-05-21T08:13:55.948Z,21.99
2023-05-21T08:14:56.000Z,22.00
2023-05-21T08:15:56.066Z,22.01
2023-05-21T08:16:56.066Z,22.01
2023-05-21T08:17:56.104Z,22.03
2023-05-21T08:18:56.150Z,22.04
2023-05-21T08:19:56.179Z,22.05
2023-05-21T08:20:56.179Z,22.06
2023-05-21T08:21:56.238Z,22.08
2023-05-21T08:22:56.223Z,22.08
2023-05-21T08:23:56.259Z,22.09
2023-05-21T08:24:56.304Z,22.10
2023-05-21T08:25:56.322Z,22.11
2023-05-21T08:26:56.325Z,22.11
2023-05-21T08:27:56.375Z,22.13
2023-05-21T08:28:56.394Z,22.13
2023-05-21T08:29:56.446Z,22.14
2023-05-21T08:30:56.453Z,22.16
2023-05-21T08:31:56.509Z,22.17
2023-05-21T08:32:56.545Z,22.18
2023-05-21T08:33:56.533Z,22.18
2023-05-21T08:34:56.553Z,22.20
2023-05-21T08:35:56.605Z,22.20
2023-05-21T08:36:56.591Z,22.21
2023-05-21T08:37:56.617Z,22.22
2023-05-21T08:38:56.595Z,22.22
2023-05-21T08:39:56.642Z,22.24
2023-05-21T08:40:56.684Z,22.23
2023-05-21T08:41:56.666Z,22.24
2023-05-21T08:42:56.676Z,22.26
2023-05-21T08:43:56.724Z,22.26
2023-05-21T08:44:56.747Z,22.26
2023-05-21T08:45:56.759Z,22.27
2023-05-21T08:46:56.765Z,22.27
2023-05-21T08:47:56.870Z,22.28
2023-05-21T08:48:56.788Z,22.28
2023-05-21T08:49:56.814Z,22.30
2023-05-21T08:50:56.806Z,22.30
2023-05-21T08:51:56.828Z,22.30
2023-05-21T08:52:56.819Z,22.31
2023-05-21T08:53:56.850Z,22.32
2023-05-21T08:54:56.897Z,22.33
2023-05-21T08:55:56.893Z,22.33
2023-05-21T08:56:56.907Z,22.34
2023-05-21T08:57:56.877Z,22.35
2023-05-21T08:58:56.869Z,22.35
2023-05-21T08:59:56.934Z,22.36
2023-05-21T09:00:56.907Z,22.37
2023-05-21T09:01:57.032Z,22.38
2023-05-21T09:02:56.968Z,22.38
2023-05-21T09:04:04.953Z,22.39
2023-05-21T09:04:57.930Z,22.39
2023-05-21T09:05:56.913Z,22.40
2023-05-21T09:06:56.891Z,22.40
2023-05-21T09:07:56.879Z,22.40
2023-05-21T09:08:56.858Z,22.41
2023-05-21T09:09:56.856Z,22.43
2023-05-21T09:10:56.883Z,22.43
2023-05-21T09:11:56.843Z,22.44
2023-05-21T09:12:56.867Z,22.45
2023-05-21T09:13:56.831Z,22.45
2023-05-21T09:14:56.812Z,22.46
2023-05-21T09:15:56.847Z,22.47
2023-05-21T09:16:56.933Z,22.47
2023-05-21T09:17:56.928Z,22.49
2023-05-21T09:18:56.841Z,22.50
2023-05-21T09:19:56.813Z,22.51
2023-05-21T09:20:56.785Z,22.52
2023-05-21T09:21:56.796Z,22.53
2023-05-21T09:22:56.789Z,22.55
2023-05-21T09:23:56.780Z,22.55
2023-05-21T09:24:56.756Z,22.57
2023-05-21T09:25:56.810Z,22.58
2023-05-21T09:26:56.772Z,22.59
2023-05-21T09:27:56.730Z,22.60
2023-05-21T09:28:56.738Z,22.62
2023-05-21T09:29:56.716Z,22.64
2023-05-21T09:30:56.814Z,22.65
2023-05-21T09:31:56.749Z,22.66
2023-05-21T09:32:56.763Z,22.67
2023-05-21T09:33:56.721Z,22.68
2023-05-21T09:34:56.716Z,22.70
2023-05-21T09:35:56.721Z,22.70
2023-05-21T09:36:56.707Z,22.71
2023-05-21T09:37:56.716Z,22.72
2023-05-21T09:38:56.664Z,22.72
2023-05-21T09:39:56.666Z,22.73
2023-05-21T09:40:56.762Z,22.74
2023-05-21T09:41:56.740Z,22.75
2023-05-21T09:42:56.803Z,22.75
2023-05-21T09:43:56.867Z,22.76
2023-05-21T09:44:56.955Z,22.76
2023-05-21T09:45:58.979Z,22.77
2023-05-21T09:46:57.105Z,22.79
2023-05-21T09:47:57.006Z,22.79
2023-05-21T09:48:56.962Z,22.80
2023-05-21T09:49:56.984Z,22.81
2023-05-21T09:50:56.956Z,22.83
2023-05-21T09:51:56.961Z,22.83
2023-05-21T09:52:56.928Z,22.84
2023-05-21T09:53:56.941Z,22.85
2023-05-21T09:54:56.929Z,22.85
2023-05-21T09:55:56.933Z,22.86
2023-05-21T09:56:56.953Z,22.86
2023-05-21T09:57:56.938Z,22.86
2023-05-21T09:58:56.904Z,22.87
2023-05-21T09:59:56.907Z,22.88
2023-05-21T10:00:56.898Z,22.88
2023-05-21T10:01:56.938Z,22.88
2023-05-21T10:02:56.938Z,22.90
2023-05-21T10:03:56.941Z,22.91
2023-05-21T10:04:56.884Z,22.91
2023-05-21T10:05:56.878Z,22.92
2023-05-21T10:06:56.879Z,22.92
2023-05-21T10:07:56.851Z,22.92
2023-05-21T10:08:56.852Z,22.92
2023-05-21T10:09:56.841Z,22.93
2023-05-21T10:10:56.881Z,22.94
2023-05-21T10:11:56.924Z,22.94
2023-05-21T10:12:56.976Z,22.94
2023-05-21T10:13:56.978Z,22.95
2023-05-21T10:14:57.044Z,22.96
2023-05-21T10:15:57.113Z,22.96
2023-05-21T10:16:57.123Z,22.97
2023-05-21T10:17:57.179Z,22.98
2023-05-21T10:18:57.222Z,23.00
2023-05-21T10:19:57.227Z,22.99
2023-05-21T10:20:57.240Z,23.00
2023-05-21T10:21:57.305Z,23.00
2023-05-21T10:22:57.347Z,23.01
2023-05-21T10:23:57.369Z,23.02
2023-05-21T10:24:57.421Z,23.02
2023-05-21T10:25:57.475Z,23.03
2023-05-21T10:26:57.465Z,23.03
2023-05-21T10:27:57.532Z,23.03
2023-05-21T10:28:57.553Z,23.05
2023-05-21T10:29:57.609Z,23.06
2023-05-21T10:30:57.663Z,23.06
2023-05-21T10:31:57.683Z,23.06
2023-05-21T10:32:57.934Z,23.07
2023-05-21T10:33:57.743Z,23.06
2023-05-21T10:34:59.315Z,23.06
2023-05-21T10:35:57.787Z,23.07
2023-05-21T10:36:57.772Z,23.07
2023-05-21T10:37:57.768Z,23.07
2023-05-21T10:38:57.731Z,23.08
2023-05-21T10:39:57.723Z,23.09
2023-05-21T10:40:57.755Z,23.10
2023-05-21T10:41:59.225Z,23.11
2023-05-21T10:42:57.719Z,23.12
2023-05-21T10:43:57.683Z,23.11
2023-05-21T10:44:57.712Z,23.12
2023-05-21T10:45:57.776Z,23.13
2023-05-21T10:46:57.696Z,23.13
2023-05-21T10:47:57.728Z,23.13
2023-05-21T10:48:57.671Z,23.14
2023-05-21T10:49:57.657Z,23.14
2023-05-21T10:50:57.675Z,23.13
2023-05-21T10:51:57.681Z,23.13
2023-05-21T10:52:57.670Z,23.13
2023-05-21T10:53:57.635Z,23.13
2023-05-21T10:54:57.653Z,23.13
2023-05-21T10:55:57.617Z,23.14
2023-05-21T10:56:57.602Z,23.14
2023-05-21T10:57:57.648Z,23.15
2023-05-21T10:58:57.649Z,23.15
2023-05-21T10:59:57.635Z,23.17
2023-05-21T11:00:57.670Z,23.18
2023-05-21T11:01:57.609Z,23.18
2023-05-21T11:02:57.664Z,23.17
2023-05-21T11:03:57.627Z,23.17
2023-05-21T11:04:57.585Z,23.18
2023-05-21T11:05:57.603Z,23.18
2023-05-21T11:06:58.624Z,23.20
2023-05-21T11:07:57.689Z,23.20
2023-05-21T11:08:57.564Z,23.20
2023-05-21T11:09:57.554Z,23.21
2023-05-21T11:10:57.606Z,23.21
2023-05-21T11:11:57.527Z,23.23
2023-05-21T11:12:57.532Z,23.24
2023-05-21T11:13:57.535Z,23.24
2023-05-21T11:14:57.591Z,23.25
2023-05-21T11:15:57.617Z,23.25
2023-05-21T11:16:57.638Z,23.26
2023-05-21T11:17:57.688Z,23.26
2023-05-21T11:18:57.658Z,23.27
2023-05-21T11:19:57.644Z,23.27
2023-05-21T11:20:57.633Z,23.28
2023-05-21T11:21:57.647Z,23.28
2023-05-21T11:22:57.637Z,23.28
2023-05-21T11:23:57.711Z,23.28
2023-05-21T11:24:57.719Z,23.29
2023-05-21T11:25:57.714Z,23.29
2023-05-21T11:26:57.729Z,23.29
2023-05-21T11:27:57.740Z,23.32
2023-05-21T11:28:57.785Z,23.31
2023-05-21T11:29:57.770Z,23.32
2023-05-21T11:30:57.810Z,23.31
2023-05-21T11:31:57.806Z,23.31
2023-05-21T11:32:57.841Z,23.32
2023-05-21T11:33:57.827Z,23.32
2023-05-21T11:34:57.837Z,23.32
2023-05-21T11:35:57.834Z,23.32
2023-05-21T11:36:57.901Z,23.32
2023-05-21T11:37:57.894Z,23.32
2023-05-21T11:38:57.927Z,23.31
2023-05-21T11:39:57.923Z,23.32
2023-05-21T11:40:57.922Z,23.32
2023-05-21T11:41:57.933Z,23.31
2023-05-21T11:42:57.998Z,23.30
2023-05-21T11:43:57.989Z,23.30
2023-05-21T11:44:58.009Z,23.30
2023-05-21T11:45:58.076Z,23.29
2023-05-21T11:46:58.045Z,23.30
2023-05-21T11:47:58.111Z,23.32
2023-05-21T11:48:58.094Z,23.31
2023-05-21T11:49:58.080Z,23.31
2023-05-21T11:50:58.138Z,23.31
2023-05-21T11:51:58.140Z,23.31
2023-05-21T11:52:58.182Z,23.32
2023-05-21T11:53:58.169Z,23.33
2023-05-21T11:54:58.209Z,23.32
2023-05-21T11:55:58.244Z,23.33
2023-05-21T11:56:58.214Z,23.32
2023-05-21T11:57:58.238Z,23.33
2023-05-21T11:58:58.258Z,23.34
2023-05-21T11:59:58.356Z,23.33
2023-05-21T12:00:58.315Z,23.32
2023-05-21T12:01:58.323Z,23.31
2023-05-21T12:02:58.428Z,23.30
2023-05-21T12:03:58.393Z,23.30
2023-05-21T12:04:58.321Z,23.31
2023-05-21T12:05:58.509Z,23.32
2023-05-21T12:06:58.413Z,23.31
2023-05-21T12:07:59.120Z,23.31
2023-05-21T12:08:58.625Z,23.31
2023-05-21T12:09:58.473Z,23.31
2023-05-21T12:10:58.483Z,23.31
2023-05-21T12:11:58.565Z,23.32
2023-05-21T12:12:58.537Z,23.33
2023-05-21T12:13:58.558Z,23.34
2023-05-21T12:14:58.623Z,23.33
2023-05-21T12:15:58.616Z,23.34
2023-05-21T12:16:58.714Z,23.34
2023-05-21T12:17:58.638Z,23.35
2023-05-21T12:18:58.670Z,23.34
2023-05-21T12:19:58.696Z,23.34
2023-05-21T12:20:58.702Z,23.35
2023-05-21T12:21:58.735Z,23.35
2023-05-21T12:22:58.716Z,23.36
2023-05-21T12:23:58.730Z,23.36
2023-05-21T12:24:58.777Z,23.36
2023-05-21T12:25:58.783Z,23.36
2023-05-21T12:26:58.799Z,23.37
2023-05-21T12:27:59.112Z,23.37
2023-05-21T12:28:59.619Z,23.38
2023-05-21T12:29:58.863Z,23.38
2023-05-21T12:30:58.867Z,23.37
2023-05-21T12:31:58.842Z,23.38
2023-05-21T12:32:58.929Z,23.37
2023-05-21T12:33:58.890Z,23.38
2023-05-21T12:34:58.900Z,23.37
2023-05-21T12:35:58.964Z,23.38
2023-05-21T12:36:58.955Z,23.37
2023-05-21T12:37:58.969Z,23.38
2023-05-21T12:38:58.950Z,23.37
2023-05-21T12:39:59.004Z,23.38
2023-05-21T12:40:58.990Z,23.38
2023-05-21T12:41:59.038Z,23.38
2023-05-21T12:42:59.064Z,23.38
2023-05-21T12:43:59.057Z,23.38
2023-05-21T12:44:59.105Z,23.39
2023-05-21T12:45:59.155Z,23.38
2023-05-21T12:46:59.134Z,23.39
2023-05-21T12:47:59.200Z,23.39
2023-05-21T12:48:59.171Z,23.38
2023-05-21T12:49:59.175Z,23.39
2023-05-21T12:50:59.225Z,23.38
2023-05-21T12:51:59.232Z,23.38
2023-05-21T12:52:59.231Z,23.39